createdAt,value
2018-03-27T00:00:26.772Z,99.90
2018-03-27T00:01:01.270Z,99.90
2018-03-27T00:01:35.767Z,99.90
2018-03-27T00:02:09.501Z,99.90
2018-03-27T00:02:43.257Z,99.90
2018-03-27T00:03:16.983Z,99.90
2018-03-27T00:03:50.723Z,99.90
2018-03-27T00:04:24.510Z,99.90
2018-03-27T00:04:57.930Z,99.90
2018-03-27T00:05:32.439Z,99.90
2018-03-27T00:06:06.205Z,99.90
2018-03-27T00:06:39.953Z,99.90
2018-03-27T00:07:13.729Z,99.90
2018-03-27T00:07:47.493Z,99.90
2018-03-27T00:08:21.997Z,99.90
2018-03-27T00:08:55.728Z,99.90
2018-03-27T00:09:29.463Z,99.90
2018-03-27T00:10:03.235Z,99.90
2018-03-27T00:10:36.993Z,99.90
2018-03-27T00:11:10.735Z,99.90
2018-03-27T00:11:44.483Z,99.90
2018-03-27T00:12:18.233Z,99.90
2018-03-27T00:12:52.433Z,99.90
2018-03-27T00:13:26.167Z,99.90
2018-03-27T00:13:59.901Z,99.90
2018-03-27T00:14:33.627Z,99.90
2018-03-27T00:15:08.447Z,99.90
2018-03-27T00:15:42.997Z,99.90
2018-03-27T00:16:16.741Z,99.90
2018-03-27T00:16:51.239Z,99.90
2018-03-27T00:17:24.963Z,99.90
2018-03-27T00:17:58.695Z,99.90
2018-03-27T00:18:32.483Z,99.90
2018-03-27T00:19:06.322Z,99.90
2018-03-27T00:19:40.243Z,99.90
2018-03-27T00:20:14.362Z,99.90
2018-03-27T00:20:48.113Z,99.90
2018-03-27T00:21:22.615Z,99.90
2018-03-27T00:21:57.123Z,99.90
2018-03-27T00:22:31.051Z,99.90
2018-03-27T00:23:04.798Z,99.90
2018-03-27T00:23:39.457Z,99.90
2018-03-27T00:24:13.196Z,99.90
2018-03-27T00:24:46.925Z,99.90
2018-03-27T00:25:20.698Z,99.90
2018-03-27T00:25:55.205Z,99.90
2018-03-27T00:26:29.037Z,99.90
2018-03-27T00:27:01.627Z,99.90
2018-03-27T00:27:46.599Z,99.90
2018-03-27T00:28:31.415Z,99.90
2018-03-27T00:29:16.133Z,99.90
2018-03-27T00:30:01.083Z,99.90
2018-03-27T00:30:46.133Z,99.90
2018-03-27T00:31:31.768Z,99.90
2018-03-27T00:32:16.655Z,99.90
2018-03-27T00:33:02.310Z,99.90
2018-03-27T00:33:47.353Z,99.90
2018-03-27T00:34:32.213Z,99.90
2018-03-27T00:35:17.879Z,99.90
2018-03-27T00:36:03.188Z,99.90
2018-03-27T00:36:48.034Z,99.90
2018-03-27T00:37:32.799Z,99.90
2018-03-27T00:38:17.592Z,99.90
2018-03-27T00:39:02.469Z,99.90
2018-03-27T00:39:48.115Z,99.90
2018-03-27T00:40:33.767Z,99.90
2018-03-27T00:42:44.389Z,99.90
2018-03-27T00:43:18.113Z,99.90
2018-03-27T00:43:51.621Z,99.90
2018-03-27T00:44:25.335Z,99.90
2018-03-27T00:44:59.843Z,99.90
2018-03-27T00:45:34.327Z,99.90
2018-03-27T00:46:08.188Z,99.90
2018-03-27T00:46:42.807Z,99.90
2018-03-27T00:47:16.697Z,99.90
2018-03-27T00:47:52.011Z,99.90
2018-03-27T00:48:26.649Z,99.90
2018-03-27T00:49:00.409Z,99.90
2018-03-27T00:49:34.129Z,99.90
2018-03-27T00:50:07.850Z,99.90
2018-03-27T00:50:41.573Z,99.90
2018-03-27T00:51:15.297Z,99.90
2018-03-27T00:51:49.060Z,99.90
2018-03-27T00:52:22.839Z,99.90
2018-03-27T00:52:56.707Z,99.90
2018-03-27T00:53:30.439Z,99.90
2018-03-27T00:54:04.159Z,99.90
2018-03-27T00:54:37.886Z,99.90
2018-03-27T00:55:12.409Z,99.90
2018-03-27T00:55:46.900Z,99.90
2018-03-27T00:56:20.629Z,99.90
2018-03-27T00:56:54.405Z,99.90
2018-03-27T00:57:32.099Z,99.90
2018-03-27T00:58:05.851Z,99.90
2018-03-27T00:58:39.841Z,99.90
2018-03-27T00:59:13.618Z,99.90
2018-03-27T00:59:47.431Z,99.90
2018-03-27T01:00:20.521Z,99.90
2018-03-27T01:00:55.379Z,99.90
2018-03-27T01:01:29.328Z,99.90
2018-03-27T01:02:03.479Z,99.90
2018-03-27T01:02:37.979Z,99.90
2018-03-27T01:03:11.733Z,99.90
2018-03-27T01:03:46.252Z,99.90
2018-03-27T01:04:20.734Z,99.90
2018-03-27T01:04:54.238Z,99.90
2018-03-27T01:05:28.735Z,99.90
2018-03-27T01:06:02.462Z,99.90
2018-03-27T01:06:36.195Z,99.90
2018-03-27T01:07:09.963Z,99.90
2018-03-27T01:07:43.694Z,99.90
2018-03-27T01:08:17.423Z,99.90
2018-03-27T01:08:51.153Z,99.90
2018-03-27T01:09:24.892Z,99.90
2018-03-27T01:09:59.373Z,99.90
2018-03-27T01:10:33.880Z,99.90
2018-03-27T01:11:07.616Z,99.90
2018-03-27T01:11:42.413Z,99.90
2018-03-27T01:12:17.192Z,99.90
2018-03-27T01:12:50.915Z,99.90
2018-03-27T01:13:25.429Z,99.90
2018-03-27T01:13:59.925Z,99.90
2018-03-27T01:14:33.647Z,99.90
2018-03-27T01:15:07.405Z,99.90
2018-03-27T01:15:41.146Z,99.90
2018-03-27T01:16:14.876Z,99.90
2018-03-27T01:16:48.613Z,99.90
2018-03-27T01:17:22.369Z,99.90
2018-03-27T01:17:56.089Z,99.90
2018-03-27T01:18:30.576Z,99.90
2018-03-27T01:19:05.070Z,99.90
2018-03-27T01:19:38.465Z,99.90
2018-03-27T01:20:11.878Z,99.90
2018-03-27T01:20:44.947Z,99.90
2018-03-27T01:21:18.783Z,99.90
2018-03-27T01:21:52.535Z,99.90
2018-03-27T01:22:25.943Z,99.90
2018-03-27T01:22:59.724Z,99.90
2018-03-27T01:23:33.462Z,99.90
2018-03-27T01:24:06.848Z,99.90
2018-03-27T01:24:40.573Z,99.90
2018-03-27T01:25:14.546Z,99.90
2018-03-27T01:25:48.265Z,99.90
2018-03-27T01:26:21.993Z,99.90
2018-03-27T01:26:55.725Z,99.90
2018-03-27T01:27:30.603Z,99.90
2018-03-27T01:28:04.334Z,99.90
2018-03-27T01:28:38.831Z,99.90
2018-03-27T01:29:13.339Z,99.90
2018-03-27T01:29:47.053Z,99.90
2018-03-27T01:30:21.537Z,99.90
2018-03-27T01:30:55.255Z,99.90
2018-03-27T01:31:28.988Z,99.90
2018-03-27T01:32:02.716Z,99.90
2018-03-27T01:32:37.237Z,99.90
2018-03-27T01:33:11.726Z,99.90
2018-03-27T01:33:45.528Z,99.90
2018-03-27T01:34:20.052Z,99.90
2018-03-27T01:34:54.538Z,99.90
2018-03-27T01:35:28.264Z,99.90
2018-03-27T01:36:02.013Z,99.90
2018-03-27T01:36:35.753Z,99.90
2018-03-27T01:37:09.483Z,99.90
2018-03-27T01:37:43.249Z,99.90
2018-03-27T01:38:16.976Z,99.90
2018-03-27T01:38:50.377Z,99.90
2018-03-27T01:39:24.879Z,99.90
2018-03-27T01:39:59.390Z,99.90
2018-03-27T01:40:33.106Z,99.90
2018-03-27T01:41:06.830Z,99.90
2018-03-27T01:41:40.565Z,99.90
2018-03-27T01:42:15.069Z,99.90
2018-03-27T01:42:48.840Z,99.90
2018-03-27T01:43:22.575Z,99.90
2018-03-27T01:43:56.312Z,99.90
2018-03-27T01:44:30.028Z,99.90
2018-03-27T01:45:03.435Z,99.90
2018-03-27T01:45:37.946Z,99.90
2018-03-27T01:46:12.437Z,99.90
2018-03-27T01:46:46.930Z,99.90
2018-03-27T01:47:20.658Z,99.90
2018-03-27T01:47:54.752Z,99.90
2018-03-27T01:48:29.237Z,99.90
2018-03-27T01:49:02.976Z,99.90
2018-03-27T01:49:36.698Z,99.90
2018-03-27T01:50:10.438Z,99.90
2018-03-27T01:50:44.162Z,99.90
2018-03-27T01:51:17.894Z,99.90
2018-03-27T01:51:52.396Z,99.90
2018-03-27T01:52:26.126Z,99.90
2018-03-27T01:53:00.192Z,99.90
2018-03-27T01:53:33.928Z,99.90
2018-03-27T01:54:07.651Z,99.90
2018-03-27T01:54:41.378Z,99.90
2018-03-27T01:55:15.862Z,99.90
2018-03-27T01:55:49.592Z,99.90
2018-03-27T01:56:23.319Z,99.90
2018-03-27T01:56:57.041Z,99.90
2018-03-27T01:57:30.762Z,99.90
2018-03-27T01:58:04.570Z,99.90
2018-03-27T01:58:38.336Z,99.90
2018-03-27T01:59:12.822Z,99.90
2018-03-27T01:59:46.544Z,99.90
2018-03-27T02:00:21.051Z,99.90
2018-03-27T02:00:54.782Z,99.90
2018-03-27T02:01:28.527Z,99.90
2018-03-27T02:02:02.789Z,99.90
2018-03-27T02:02:36.523Z,99.90
2018-03-27T02:03:11.060Z,99.90
2018-03-27T02:03:44.794Z,99.90
2018-03-27T02:04:18.522Z,99.90
2018-03-27T02:04:52.024Z,99.90
2018-03-27T02:05:25.768Z,99.90
2018-03-27T02:05:59.493Z,99.90
2018-03-27T02:06:33.232Z,99.90
2018-03-27T02:07:07.152Z,99.90
2018-03-27T02:07:41.664Z,99.90
2018-03-27T02:08:16.503Z,99.90
2018-03-27T02:08:50.228Z,99.90
2018-03-27T02:09:23.960Z,99.90
2018-03-27T02:09:58.460Z,99.90
2018-03-27T02:10:32.459Z,99.90
2018-03-27T02:11:11.642Z,99.90
2018-03-27T02:11:51.486Z,99.90
2018-03-27T02:12:30.548Z,99.90
2018-03-27T02:13:10.418Z,99.90
2018-03-27T02:13:49.536Z,99.90
2018-03-27T02:14:28.848Z,99.90
2018-03-27T02:15:08.114Z,99.90
2018-03-27T02:15:47.384Z,99.90
2018-03-27T02:16:27.845Z,99.90
2018-03-27T02:17:07.584Z,99.90
2018-03-27T02:17:48.448Z,99.90
2018-03-27T02:18:27.960Z,99.90
2018-03-27T02:19:08.104Z,99.90
2018-03-27T02:19:49.078Z,99.90
2018-03-27T02:20:29.214Z,99.90
2018-03-27T02:21:09.253Z,99.90
2018-03-27T02:21:43.962Z,99.90
2018-03-27T02:22:18.281Z,99.90
2018-03-27T02:22:58.346Z,99.90
2018-03-27T02:23:31.822Z,99.90
2018-03-27T02:24:12.304Z,99.90
2018-03-27T02:24:46.034Z,99.90
2018-03-27T02:25:19.787Z,99.90
2018-03-27T02:25:53.812Z,99.90
2018-03-27T02:26:27.910Z,99.90
2018-03-27T02:27:02.732Z,99.90
2018-03-27T02:27:36.827Z,99.90
2018-03-27T02:28:10.928Z,99.90
2018-03-27T02:28:45.028Z,99.90
2018-03-27T02:29:19.052Z,99.90
2018-03-27T02:29:53.120Z,99.90
2018-03-27T02:30:27.162Z,99.90
2018-03-27T02:31:01.225Z,99.90
2018-03-27T02:31:35.184Z,99.90
2018-03-27T02:32:09.039Z,99.90
2018-03-27T02:32:43.827Z,99.90
2018-03-27T02:33:17.922Z,99.90
2018-03-27T02:33:55.297Z,99.90
2018-03-27T02:34:30.424Z,99.90
2018-03-27T02:35:05.370Z,99.90
2018-03-27T02:35:39.339Z,99.90
2018-03-27T02:36:13.358Z,99.90
2018-03-27T02:36:47.732Z,99.90
2018-03-27T02:37:21.637Z,99.90
2018-03-27T02:37:55.634Z,99.90
2018-03-27T02:38:30.185Z,99.90
2018-03-27T02:39:03.362Z,99.90
2018-03-27T02:39:37.104Z,99.90
2018-03-27T02:40:10.826Z,99.90
2018-03-27T02:40:44.541Z,99.90
2018-03-27T02:41:18.257Z,99.90
2018-03-27T02:41:52.756Z,99.90
2018-03-27T02:42:27.243Z,99.90
2018-03-27T02:43:00.757Z,99.90
2018-03-27T02:43:34.500Z,99.90
2018-03-27T02:44:08.218Z,99.90
2018-03-27T02:44:41.980Z,99.90
2018-03-27T02:45:15.706Z,99.90
2018-03-27T02:45:50.200Z,99.90
2018-03-27T02:46:23.688Z,99.90
2018-03-27T02:46:57.430Z,99.90
2018-03-27T02:47:31.155Z,99.90
2018-03-27T02:48:04.884Z,99.90
2018-03-27T02:48:39.147Z,99.90
2018-03-27T02:49:12.886Z,99.90
2018-03-27T02:49:46.847Z,99.90
2018-03-27T02:50:20.582Z,99.90
2018-03-27T02:50:54.313Z,99.90
2018-03-27T02:51:27.815Z,99.90
2018-03-27T02:52:01.534Z,99.90
2018-03-27T02:52:36.024Z,99.90
2018-03-27T02:53:09.748Z,99.90
2018-03-27T02:53:43.257Z,99.90
2018-03-27T02:54:16.989Z,99.90
2018-03-27T02:54:50.743Z,99.90
2018-03-27T02:55:24.470Z,99.90
2018-03-27T02:55:58.422Z,99.90
2018-03-27T02:56:32.309Z,99.90
2018-03-27T02:57:06.331Z,99.90
2018-03-27T02:57:40.415Z,99.90
2018-03-27T02:58:14.917Z,99.90
2018-03-27T02:58:48.917Z,99.90
2018-03-27T02:59:23.216Z,99.90
2018-03-27T02:59:58.342Z,99.90
2018-03-27T03:00:32.396Z,99.90
2018-03-27T03:01:05.726Z,99.90
2018-03-27T03:01:39.641Z,99.90
2018-03-27T03:02:13.408Z,99.90
2018-03-27T03:02:47.403Z,99.90
2018-03-27T03:03:22.327Z,99.90
2018-03-27T03:03:56.218Z,99.90
2018-03-27T03:04:30.321Z,99.90
2018-03-27T03:05:04.622Z,99.90
2018-03-27T03:05:38.725Z,99.90
2018-03-27T03:06:13.539Z,99.90
2018-03-27T03:06:47.534Z,99.90
2018-03-27T03:07:21.530Z,99.90
2018-03-27T03:07:55.526Z,99.90
2018-03-27T03:08:30.159Z,99.90
2018-03-27T03:09:03.626Z,99.90
2018-03-27T03:09:37.720Z,99.90
2018-03-27T03:10:12.539Z,99.90
2018-03-27T03:10:46.098Z,99.90
2018-03-27T03:11:20.128Z,99.90
2018-03-27T03:11:54.223Z,99.90
2018-03-27T03:12:28.327Z,99.90
2018-03-27T03:13:02.326Z,99.90
2018-03-27T03:13:36.418Z,99.90
2018-03-27T03:14:10.926Z,99.90
2018-03-27T03:14:44.653Z,99.90
2018-03-27T03:15:18.724Z,99.90
2018-03-27T03:15:52.818Z,99.90
2018-03-27T03:16:27.857Z,99.90
2018-03-27T03:17:01.944Z,99.90
2018-03-27T03:17:35.936Z,99.90
2018-03-27T03:18:10.035Z,99.90
2018-03-27T03:18:43.840Z,99.90
2018-03-27T03:19:17.829Z,99.90
2018-03-27T03:19:51.922Z,99.90
2018-03-27T03:20:26.636Z,99.90
2018-03-27T03:21:00.634Z,99.90
2018-03-27T03:21:34.732Z,99.90
2018-03-27T03:22:08.529Z,99.90
2018-03-27T03:22:42.520Z,99.90
2018-03-27T03:23:16.424Z,99.90
2018-03-27T03:23:50.414Z,99.90
2018-03-27T03:24:24.505Z,99.90
2018-03-27T03:24:59.228Z,99.90
2018-03-27T03:25:33.628Z,99.90
2018-03-27T03:26:08.346Z,99.90
2018-03-27T03:26:42.341Z,99.90
2018-03-27T03:27:16.347Z,99.90
2018-03-27T03:27:51.152Z,99.90
2018-03-27T03:28:25.866Z,99.90
2018-03-27T03:29:00.585Z,99.90
2018-03-27T03:29:34.679Z,99.90
2018-03-27T03:30:09.423Z,99.90
2018-03-27T03:30:43.704Z,99.90
2018-03-27T03:31:17.703Z,99.90
2018-03-27T03:31:51.695Z,99.90
2018-03-27T03:32:26.335Z,99.90
2018-03-27T03:33:00.227Z,99.90
2018-03-27T03:33:34.192Z,99.90
2018-03-27T03:34:08.910Z,99.90
2018-03-27T03:34:42.906Z,99.90
2018-03-27T03:35:17.621Z,99.90
2018-03-27T03:35:53.153Z,99.90
2018-03-27T03:36:28.381Z,99.90
2018-03-27T03:37:04.222Z,99.90
2018-03-27T03:37:38.836Z,99.90
2018-03-27T03:38:13.348Z,99.90
2018-03-27T03:38:47.894Z,99.90
2018-03-27T03:39:21.848Z,99.90
2018-03-27T03:39:55.948Z,99.90
2018-03-27T03:40:29.940Z,99.90
2018-03-27T03:41:05.066Z,99.90
2018-03-27T03:41:39.268Z,99.90
2018-03-27T03:42:13.983Z,99.90
2018-03-27T03:42:47.714Z,99.90
2018-03-27T03:43:21.666Z,99.90
2018-03-27T03:43:56.380Z,99.90
2018-03-27T03:44:31.096Z,99.90
2018-03-27T03:45:05.808Z,99.90
2018-03-27T03:45:41.348Z,99.90
2018-03-27T03:46:15.557Z,99.90
2018-03-27T03:46:49.555Z,99.90
2018-03-27T03:47:24.361Z,99.90
2018-03-27T03:47:58.460Z,99.90
2018-03-27T03:48:32.555Z,99.90
2018-03-27T03:49:07.751Z,99.90
2018-03-27T03:49:41.883Z,99.90
2018-03-27T03:50:16.214Z,99.90
2018-03-27T03:50:50.940Z,99.90
2018-03-27T03:51:24.930Z,99.90
2018-03-27T03:51:58.998Z,99.90
2018-03-27T03:52:33.706Z,99.90
2018-03-27T03:53:07.512Z,99.90
2018-03-27T03:53:41.602Z,99.90
2018-03-27T03:54:15.376Z,99.90
2018-03-27T03:54:49.882Z,99.90
2018-03-27T03:55:24.400Z,99.90
2018-03-27T03:55:59.124Z,99.90
2018-03-27T03:56:33.953Z,99.90
2018-03-27T03:57:08.040Z,99.90
2018-03-27T03:57:42.858Z,99.90
2018-03-27T03:58:16.854Z,99.90
2018-03-27T03:58:51.447Z,99.90
2018-03-27T03:59:25.939Z,99.90
2018-03-27T03:59:59.649Z,99.90
2018-03-27T04:00:34.151Z,99.90
2018-03-27T04:01:08.643Z,99.90
2018-03-27T04:01:42.671Z,99.90
2018-03-27T04:02:17.172Z,99.90
2018-03-27T04:02:51.672Z,99.90
2018-03-27T04:03:26.164Z,99.90
2018-03-27T04:03:59.892Z,99.90
2018-03-27T04:04:33.622Z,99.90
2018-03-27T04:05:07.010Z,99.90
2018-03-27T04:05:40.762Z,99.90
2018-03-27T04:06:14.488Z,99.90
2018-03-27T04:06:48.242Z,99.90
2018-03-27T04:07:21.974Z,99.90
2018-03-27T04:07:55.703Z,99.90
2018-03-27T04:08:30.184Z,99.90
2018-03-27T04:09:03.346Z,99.90
2018-03-27T04:09:37.064Z,99.90
2018-03-27T04:10:10.789Z,99.90
2018-03-27T04:10:44.517Z,99.90
2018-03-27T04:11:18.301Z,99.90
2018-03-27T04:11:52.207Z,99.90
2018-03-27T04:12:25.944Z,99.90
2018-03-27T04:13:00.442Z,99.90
2018-03-27T04:13:34.162Z,99.90
2018-03-27T04:14:07.887Z,99.90
2018-03-27T04:14:41.610Z,99.90
2018-03-27T04:15:15.329Z,99.90
2018-03-27T04:15:49.055Z,99.90
2018-03-27T04:16:22.776Z,99.90
2018-03-27T04:16:56.496Z,99.90
2018-03-27T04:17:30.986Z,99.90
2018-03-27T04:18:04.034Z,99.90
2018-03-27T04:18:38.519Z,99.90
2018-03-27T04:19:12.235Z,99.90
2018-03-27T04:19:45.946Z,99.90
2018-03-27T04:20:19.686Z,99.90
2018-03-27T04:20:53.419Z,99.90
2018-03-27T04:21:27.135Z,99.90
2018-03-27T04:22:01.950Z,99.90
2018-03-27T04:22:36.443Z,99.90
2018-03-27T04:23:10.162Z,99.90
2018-03-27T04:23:43.883Z,99.90
2018-03-27T04:24:17.603Z,99.90
2018-03-27T04:24:51.515Z,99.90
2018-03-27T04:25:26.021Z,99.90
2018-03-27T04:26:00.590Z,99.90
2018-03-27T04:26:34.329Z,99.90
2018-03-27T04:27:09.173Z,99.90
2018-03-27T04:27:42.894Z,99.90
2018-03-27T04:28:16.631Z,99.90
2018-03-27T04:28:50.791Z,99.90
2018-03-27T04:29:24.511Z,99.90
2018-03-27T04:29:58.227Z,99.90
2018-03-27T04:30:31.955Z,99.90
2018-03-27T04:31:05.387Z,99.90
2018-03-27T04:31:39.899Z,99.90
2018-03-27T04:32:14.428Z,99.90
2018-03-27T04:32:48.153Z,99.90
2018-03-27T04:33:21.887Z,99.90
2018-03-27T04:33:56.389Z,99.90
2018-03-27T04:34:30.154Z,99.90
2018-03-27T04:35:03.878Z,99.90
2018-03-27T04:35:38.378Z,99.90
2018-03-27T04:36:12.883Z,99.90
2018-03-27T04:36:46.613Z,99.90
2018-03-27T04:37:20.722Z,99.90
2018-03-27T04:37:54.214Z,99.90
2018-03-27T04:38:27.945Z,99.90
2018-03-27T04:39:01.677Z,99.90
2018-03-27T04:39:35.407Z,99.90
2018-03-27T04:40:09.122Z,99.90
2018-03-27T04:40:43.638Z,99.90
2018-03-27T04:41:18.154Z,99.90
2018-03-27T04:41:52.651Z,99.90
2018-03-27T04:42:27.192Z,99.90
2018-03-27T04:43:00.940Z,99.90
2018-03-27T04:43:34.668Z,99.90
2018-03-27T04:44:08.405Z,99.90
2018-03-27T04:44:42.126Z,99.90
2018-03-27T04:45:15.848Z,99.90
2018-03-27T04:45:49.582Z,99.90
2018-03-27T04:46:23.314Z,99.90
2018-03-27T04:46:57.807Z,99.90
2018-03-27T04:47:32.345Z,99.90
2018-03-27T04:48:06.066Z,99.90
2018-03-27T04:48:39.809Z,99.90
2018-03-27T04:49:14.314Z,99.90
2018-03-27T04:49:48.804Z,99.90
2018-03-27T04:50:22.531Z,99.90
2018-03-27T04:50:56.261Z,99.90
2018-03-27T04:51:29.983Z,99.90
2018-03-27T04:52:03.703Z,99.90
2018-03-27T04:52:38.197Z,99.90
2018-03-27T04:53:12.707Z,99.90
2018-03-27T04:53:47.340Z,99.90
2018-03-27T04:54:21.175Z,99.90
2018-03-27T04:54:55.077Z,99.90
2018-03-27T04:55:28.797Z,99.90
2018-03-27T04:56:03.307Z,99.90
2018-03-27T04:56:37.823Z,99.90
2018-03-27T04:57:12.321Z,99.90
2018-03-27T04:57:46.099Z,99.90
2018-03-27T04:58:19.832Z,99.90
2018-03-27T04:58:53.549Z,99.90
2018-03-27T04:59:26.958Z,99.90
2018-03-27T05:00:00.709Z,99.90
2018-03-27T05:00:34.435Z,99.90
2018-03-27T05:01:08.149Z,99.90
2018-03-27T05:01:41.860Z,99.90
2018-03-27T05:02:16.341Z,99.90
2018-03-27T05:02:50.095Z,99.90
2018-03-27T05:03:23.821Z,99.90
2018-03-27T05:03:57.555Z,99.90
2018-03-27T05:04:31.285Z,99.90
2018-03-27T05:05:05.015Z,99.90
2018-03-27T05:05:38.753Z,99.90
2018-03-27T05:06:12.485Z,99.90
2018-03-27T05:06:46.219Z,99.90
2018-03-27T05:07:20.128Z,99.90
2018-03-27T05:07:53.897Z,99.90
2018-03-27T05:08:27.635Z,99.90
2018-03-27T05:09:01.498Z,99.90
2018-03-27T05:09:35.223Z,99.90
2018-03-27T05:10:08.971Z,99.90
2018-03-27T05:10:42.674Z,99.90
2018-03-27T05:11:16.399Z,99.90
2018-03-27T05:11:50.154Z,99.90
2018-03-27T05:12:23.880Z,99.90
2018-03-27T05:12:58.017Z,99.90
2018-03-27T05:13:31.747Z,99.90
2018-03-27T05:14:05.471Z,99.90
2018-03-27T05:14:39.986Z,99.90
2018-03-27T05:15:13.732Z,99.90
2018-03-27T05:15:47.457Z,99.90
2018-03-27T05:16:21.399Z,99.90
2018-03-27T05:16:54.800Z,99.90
2018-03-27T05:17:28.530Z,99.90
2018-03-27T05:18:02.354Z,99.90
2018-03-27T05:18:37.016Z,99.90
2018-03-27T05:19:10.753Z,99.90
2018-03-27T05:19:45.233Z,99.90
2018-03-27T05:20:18.960Z,99.90
2018-03-27T05:20:52.689Z,99.90
2018-03-27T05:21:26.429Z,99.90
2018-03-27T05:22:00.914Z,99.90
2018-03-27T05:22:35.431Z,99.90
2018-03-27T05:23:09.171Z,99.90
2018-03-27T05:23:42.910Z,99.90
2018-03-27T05:24:16.619Z,99.90
2018-03-27T05:24:50.347Z,99.90
2018-03-27T05:25:24.077Z,99.90
2018-03-27T05:25:58.588Z,99.90
2018-03-27T05:26:33.134Z,99.90
2018-03-27T05:27:07.017Z,99.90
2018-03-27T05:27:41.616Z,99.90
2018-03-27T05:28:16.134Z,99.90
2018-03-27T05:28:50.641Z,99.90
2018-03-27T05:29:25.133Z,99.90
2018-03-27T05:29:59.658Z,99.90
2018-03-27T05:30:33.931Z,99.90
2018-03-27T05:31:07.331Z,99.90
2018-03-27T05:31:41.819Z,99.90
2018-03-27T05:32:15.542Z,99.90
2018-03-27T05:32:50.078Z,99.90
2018-03-27T05:33:23.969Z,99.90
2018-03-27T05:33:57.684Z,99.90
2018-03-27T05:34:31.405Z,99.90
2018-03-27T05:35:05.921Z,99.90
2018-03-27T05:35:39.636Z,99.90
2018-03-27T05:36:14.115Z,99.90
2018-03-27T05:36:47.836Z,99.90
2018-03-27T05:37:21.817Z,99.90
2018-03-27T05:37:56.319Z,99.90
2018-03-27T05:38:29.731Z,99.90
2018-03-27T05:39:03.147Z,99.90
2018-03-27T05:39:37.648Z,99.90
2018-03-27T05:40:11.578Z,99.90
2018-03-27T05:40:45.322Z,99.90
2018-03-27T05:41:19.058Z,99.90
2018-03-27T05:41:52.799Z,99.90
2018-03-27T05:42:26.525Z,99.90
2018-03-27T05:43:00.253Z,99.90
2018-03-27T05:43:35.077Z,99.90
2018-03-27T05:44:09.555Z,99.90
2018-03-27T05:44:43.282Z,99.90
2018-03-27T05:45:17.003Z,99.90
2018-03-27T05:45:50.723Z,99.90
2018-03-27T05:46:24.463Z,99.90
2018-03-27T05:46:58.199Z,99.90
2018-03-27T05:47:31.929Z,99.90
2018-03-27T05:48:06.415Z,99.90
2018-03-27T05:48:40.171Z,99.90
2018-03-27T05:49:13.893Z,99.90
2018-03-27T05:49:47.625Z,99.90
2018-03-27T05:50:21.497Z,99.90
2018-03-27T05:50:55.994Z,99.90
2018-03-27T05:51:29.725Z,99.90
2018-03-27T05:52:03.441Z,99.90
2018-03-27T05:52:37.181Z,99.90
2018-03-27T05:53:11.665Z,99.90
2018-03-27T05:53:45.649Z,99.90
2018-03-27T05:54:19.366Z,99.90
2018-03-27T05:54:53.623Z,99.90
2018-03-27T05:55:27.341Z,99.90
2018-03-27T05:56:01.095Z,99.90
2018-03-27T05:56:34.842Z,99.90
2018-03-27T05:57:08.563Z,99.90
2018-03-27T05:57:42.277Z,99.90
2018-03-27T05:58:15.995Z,99.90
2018-03-27T05:58:49.751Z,99.90
2018-03-27T05:59:23.493Z,99.90
2018-03-27T05:59:56.657Z,99.90
2018-03-27T06:00:30.161Z,99.90
2018-03-27T06:01:04.663Z,99.90
2018-03-27T06:01:38.398Z,99.90
2018-03-27T06:02:12.112Z,99.90
2018-03-27T06:02:45.873Z,99.90
2018-03-27T06:03:19.589Z,99.90
2018-03-27T06:03:54.121Z,99.90
2018-03-27T06:04:27.853Z,99.90
2018-03-27T06:05:01.594Z,99.90
2018-03-27T06:05:35.497Z,99.90
2018-03-27T06:06:09.225Z,99.90
2018-03-27T06:06:43.710Z,99.90
2018-03-27T06:07:17.439Z,99.90
2018-03-27T06:07:51.151Z,99.90
2018-03-27T06:08:24.883Z,99.90
2018-03-27T06:08:58.745Z,99.90
2018-03-27T06:09:32.264Z,99.90
2018-03-27T06:10:05.974Z,99.90
2018-03-27T06:10:40.459Z,99.90
2018-03-27T06:11:14.195Z,99.90
2018-03-27T06:11:47.920Z,99.90
2018-03-27T06:12:21.915Z,99.90
2018-03-27T06:12:55.635Z,99.90
2018-03-27T06:13:29.339Z,99.90
2018-03-27T06:14:03.932Z,99.90
2018-03-27T06:14:37.656Z,99.90
2018-03-27T06:15:11.389Z,99.90
2018-03-27T06:15:45.118Z,99.90
2018-03-27T06:16:19.381Z,99.90
2018-03-27T06:16:53.109Z,99.90
2018-03-27T06:17:27.607Z,99.90
2018-03-27T06:18:01.349Z,99.90
2018-03-27T06:18:34.725Z,99.90
2018-03-27T06:19:08.507Z,99.90
2018-03-27T06:19:42.066Z,99.90
2018-03-27T06:20:15.452Z,99.90
2018-03-27T06:20:49.929Z,99.90
2018-03-27T06:21:23.667Z,99.90
2018-03-27T06:21:57.382Z,99.90
2018-03-27T06:22:31.091Z,99.90
2018-03-27T06:23:04.825Z,99.90
2018-03-27T06:23:39.319Z,99.90
2018-03-27T06:24:13.092Z,99.90
2018-03-27T06:24:46.849Z,99.90
2018-03-27T06:25:20.595Z,99.90
2018-03-27T06:25:54.322Z,99.90
2018-03-27T06:26:28.068Z,99.90
2018-03-27T06:27:01.817Z,99.90
2018-03-27T06:27:35.592Z,99.90
2018-03-27T06:28:09.336Z,99.90
2018-03-27T06:28:43.132Z,99.90
2018-03-27T06:29:17.997Z,99.90
2018-03-27T06:29:51.735Z,99.90
2018-03-27T06:30:25.241Z,99.90
2018-03-27T06:30:58.983Z,99.90
2018-03-27T06:31:32.739Z,99.90
2018-03-27T06:32:07.235Z,99.90
2018-03-27T06:32:40.631Z,99.90
2018-03-27T06:33:15.140Z,99.90
2018-03-27T06:33:49.661Z,99.90
2018-03-27T06:34:23.875Z,99.90
2018-03-27T06:34:57.619Z,99.90
2018-03-27T06:35:31.331Z,99.90
2018-03-27T06:36:05.801Z,99.90
2018-03-27T06:36:39.549Z,99.90
2018-03-27T06:37:13.279Z,99.90
2018-03-27T06:37:47.013Z,99.90
2018-03-27T06:38:21.539Z,99.90
2018-03-27T06:38:55.316Z,99.90
2018-03-27T06:39:29.840Z,99.90
2018-03-27T06:40:03.235Z,99.90
2018-03-27T06:40:36.981Z,99.90
2018-03-27T06:41:10.710Z,99.90
2018-03-27T06:41:44.434Z,99.90
2018-03-27T06:42:18.196Z,99.90
2018-03-27T06:42:51.945Z,99.90
2018-03-27T06:43:25.680Z,99.80
2018-03-27T06:43:59.413Z,99.90
2018-03-27T06:44:33.171Z,99.80
2018-03-27T06:45:06.890Z,99.80
2018-03-27T06:45:40.615Z,99.90
2018-03-27T06:46:15.102Z,99.90
2018-03-27T06:46:48.829Z,99.90
2018-03-27T06:47:23.437Z,99.90
2018-03-27T06:47:57.174Z,99.90
2018-03-27T06:48:30.905Z,99.90
2018-03-27T06:49:04.620Z,99.90
2018-03-27T06:49:38.707Z,99.90
2018-03-27T06:50:12.447Z,99.80
2018-03-27T06:50:46.185Z,99.90
2018-03-27T06:51:20.687Z,99.90
2018-03-27T06:51:55.187Z,99.80
2018-03-27T06:52:28.917Z,99.90
2018-03-27T06:53:02.650Z,99.90
2018-03-27T06:53:36.385Z,99.90
2018-03-27T06:54:10.554Z,99.90
2018-03-27T06:54:44.326Z,99.90
2018-03-27T06:55:18.048Z,99.90
2018-03-27T06:55:52.547Z,99.90
2018-03-27T06:56:26.254Z,99.90
2018-03-27T06:57:00.761Z,99.90
2018-03-27T06:57:35.256Z,99.80
2018-03-27T06:58:08.994Z,99.90
2018-03-27T06:58:42.715Z,99.80
2018-03-27T06:59:16.456Z,99.50
2018-03-27T06:59:50.558Z,99.60
2018-03-27T07:00:24.284Z,99.20
2018-03-27T07:00:58.057Z,99.10
2018-03-27T07:01:31.972Z,99.20
2018-03-27T07:02:05.391Z,99.40
2018-03-27T07:02:39.290Z,99.50
2018-03-27T07:03:13.804Z,99.30
2018-03-27T07:03:47.727Z,99.90
2018-03-27T07:04:21.479Z,99.50
2018-03-27T07:04:55.507Z,99.60
2018-03-27T07:05:29.277Z,99.60
2018-03-27T07:06:03.171Z,99.70
2018-03-27T07:06:37.652Z,99.40
2018-03-27T07:07:11.411Z,99.90
2018-03-27T07:07:46.146Z,99.50
2018-03-27T07:08:19.904Z,99.90
2018-03-27T07:08:54.585Z,99.60
2018-03-27T07:09:29.076Z,99.30
2018-03-27T07:10:03.124Z,99.90
2018-03-27T07:10:36.940Z,99.30
2018-03-27T07:11:10.830Z,99.40
2018-03-27T07:11:44.715Z,99.60
2018-03-27T07:12:18.449Z,99.30
2018-03-27T07:12:52.256Z,99.80
2018-03-27T07:13:25.989Z,99.50
2018-03-27T07:13:59.716Z,99.60
2018-03-27T07:14:33.487Z,99.40
2018-03-27T07:15:08.164Z,99.20
2018-03-27T07:15:42.021Z,99.90
2018-03-27T07:16:15.902Z,99.30
2018-03-27T07:16:49.882Z,99.20
2018-03-27T07:17:24.559Z,99.90
2018-03-27T07:17:58.716Z,99.40
2018-03-27T07:18:32.494Z,99.90
2018-03-27T07:19:07.150Z,99.20
2018-03-27T07:19:41.754Z,98.90
2018-03-27T07:20:15.950Z,99.60
2018-03-27T07:20:49.700Z,98.80
2018-03-27T07:21:23.431Z,99.00
2018-03-27T07:21:57.254Z,98.90
2018-03-27T07:22:31.006Z,99.00
2018-03-27T07:23:04.754Z,99.00
2018-03-27T07:23:38.478Z,99.00
2018-03-27T07:24:12.230Z,98.70
2018-03-27T07:24:45.958Z,98.70